createdAt,value
2022-12-31T00:00:17.442Z,10.46
2022-12-31T00:01:17.383Z,10.38
2022-12-31T00:02:17.490Z,10.38
2022-12-31T00:03:17.437Z,10.38
2022-12-31T00:04:17.375Z,10.35
2022-12-31T00:05:17.316Z,10.28
2022-12-31T00:06:17.310Z,10.25
2022-12-31T00:07:17.326Z,10.19
2022-12-31T00:08:17.301Z,10.16
2022-12-31T00:09:17.281Z,10.15
2022-12-31T00:10:17.252Z,10.15
2022-12-31T00:11:17.245Z,10.16
2022-12-31T00:12:17.252Z,10.17
2022-12-31T00:13:17.250Z,10.19
2022-12-31T00:14:17.196Z,10.23
2022-12-31T00:15:17.240Z,10.28
2022-12-31T00:16:17.203Z,10.30
2022-12-31T00:17:17.159Z,10.33
2022-12-31T00:18:17.171Z,10.33
2022-12-31T00:19:17.168Z,10.30
2022-12-31T00:20:17.114Z,10.25
2022-12-31T00:21:17.110Z,10.17
2022-12-31T00:22:17.088Z,10.15
2022-12-31T00:23:17.080Z,10.09
2022-12-31T00:24:17.081Z,10.10
2022-12-31T00:25:17.074Z,10.04
2022-12-31T00:26:17.034Z,10.04
2022-12-31T00:27:17.031Z,10.02
2022-12-31T00:28:17.032Z,10.05
2022-12-31T00:29:17.027Z,10.05
2022-12-31T00:30:16.982Z,10.09
2022-12-31T00:31:16.990Z,10.15
2022-12-31T00:32:16.958Z,10.19
2022-12-31T00:33:16.980Z,10.25
2022-12-31T00:34:16.930Z,10.26
2022-12-31T00:35:16.919Z,10.30
2022-12-31T00:36:16.938Z,10.31
2022-12-31T00:37:16.896Z,10.38
2022-12-31T00:38:16.872Z,10.49
2022-12-31T00:39:16.871Z,10.61
2022-12-31T00:40:16.889Z,10.71
2022-12-31T00:41:16.881Z,10.82
2022-12-31T00:42:16.825Z,10.87
2022-12-31T00:43:16.835Z,10.90
2022-12-31T00:44:16.799Z,10.97
2022-12-31T00:45:16.815Z,11.00
2022-12-31T00:46:16.804Z,11.05
2022-12-31T00:47:16.768Z,11.11
2022-12-31T00:48:16.742Z,11.17
2022-12-31T00:49:16.809Z,11.19
2022-12-31T00:50:16.721Z,11.29
2022-12-31T00:51:16.711Z,11.37
2022-12-31T00:52:16.685Z,11.41
2022-12-31T00:53:16.709Z,11.51
2022-12-31T00:54:16.662Z,11.51
2022-12-31T00:55:16.660Z,11.54
2022-12-31T00:56:16.639Z,11.55
2022-12-31T00:57:16.637Z,11.54
2022-12-31T00:58:16.638Z,11.52
2022-12-31T00:59:16.602Z,11.52
2022-12-31T01:00:16.586Z,11.55
2022-12-31T01:01:16.707Z,11.60
2022-12-31T01:02:16.751Z,11.57
2022-12-31T01:03:16.598Z,11.54
2022-12-31T01:04:16.527Z,11.48
2022-12-31T01:05:16.527Z,11.48
2022-12-31T01:06:16.495Z,11.54
2022-12-31T01:07:16.527Z,11.54
2022-12-31T01:08:16.503Z,11.60
2022-12-31T01:09:16.484Z,11.59
2022-12-31T01:10:16.451Z,11.57
2022-12-31T01:11:16.440Z,11.59
2022-12-31T01:12:16.427Z,11.57
2022-12-31T01:13:16.437Z,11.52
2022-12-31T01:14:16.422Z,11.47
2022-12-31T01:15:16.415Z,11.40
2022-12-31T01:16:16.376Z,11.32
2022-12-31T01:17:16.378Z,11.18
2022-12-31T01:18:16.337Z,11.15
2022-12-31T01:19:16.374Z,11.17
2022-12-31T01:20:16.328Z,11.19
2022-12-31T01:21:16.329Z,11.17
2022-12-31T01:22:16.290Z,11.12
2022-12-31T01:23:16.284Z,11.07
2022-12-31T01:24:16.288Z,10.96
2022-12-31T01:25:16.246Z,10.89
2022-12-31T01:26:16.238Z,10.82
2022-12-31T01:27:16.227Z,10.79
2022-12-31T01:28:16.227Z,10.78
2022-12-31T01:29:16.192Z,10.76
2022-12-31T01:30:16.178Z,10.82
2022-12-31T01:31:16.237Z,10.84
2022-12-31T01:32:16.153Z,10.90
2022-12-31T01:33:16.151Z,10.93
2022-12-31T01:34:16.141Z,10.99
2022-12-31T01:35:16.135Z,10.96
2022-12-31T01:36:20.356Z,10.89
2022-12-31T01:37:16.108Z,10.79
2022-12-31T01:38:16.081Z,10.71
2022-12-31T01:39:16.079Z,10.60
2022-12-31T01:40:16.069Z,10.51
2022-12-31T01:41:16.037Z,10.44
2022-12-31T01:42:16.033Z,10.35
2022-12-31T01:43:16.014Z,10.34
2022-12-31T01:44:15.988Z,10.38
2022-12-31T01:45:15.993Z,10.42
2022-12-31T01:46:15.993Z,10.46
2022-12-31T01:47:16.012Z,10.44
2022-12-31T01:48:15.939Z,10.46
2022-12-31T01:49:15.929Z,10.42
2022-12-31T01:50:15.910Z,10.35
2022-12-31T01:51:15.913Z,10.31
2022-12-31T01:52:15.923Z,10.22
2022-12-31T01:53:15.877Z,10.19
2022-12-31T01:54:15.853Z,10.12
2022-12-31T01:55:15.867Z,10.02
2022-12-31T01:56:15.831Z,9.99
2022-12-31T01:57:15.860Z,9.95
2022-12-31T01:58:15.804Z,9.94
2022-12-31T01:59:15.823Z,9.92
2022-12-31T02:00:15.820Z,9.92
2022-12-31T02:01:15.896Z,9.92
2022-12-31T02:02:15.941Z,10.04
2022-12-31T02:03:15.821Z,10.19
2022-12-31T02:04:15.720Z,10.38
2022-12-31T02:05:15.759Z,10.60
2022-12-31T02:06:15.688Z,10.72
2022-12-31T02:07:15.722Z,10.86
2022-12-31T02:08:15.663Z,10.96
2022-12-31T02:09:15.672Z,11.05
2022-12-31T02:10:15.650Z,11.05
2022-12-31T02:11:15.637Z,11.08
2022-12-31T02:12:15.641Z,11.15
2022-12-31T02:13:15.609Z,11.15
2022-12-31T02:14:15.590Z,11.18
2022-12-31T02:15:15.579Z,11.19
2022-12-31T02:16:15.623Z,11.22
2022-12-31T02:17:15.564Z,11.19
2022-12-31T02:18:15.553Z,11.19
2022-12-31T02:19:15.528Z,11.18
2022-12-31T02:20:15.520Z,11.14
2022-12-31T02:21:15.531Z,11.15
2022-12-31T02:22:15.497Z,11.11
2022-12-31T02:23:15.491Z,11.11
2022-12-31T02:24:15.453Z,11.10
2022-12-31T02:25:15.462Z,11.08
2022-12-31T02:26:15.467Z,11.07
2022-12-31T02:27:15.421Z,11.04
2022-12-31T02:28:15.405Z,11.00
2022-12-31T02:29:15.406Z,11.02
2022-12-31T02:30:15.377Z,11.05
2022-12-31T02:31:16.927Z,11.04
2022-12-31T02:32:15.373Z,11.04
2022-12-31T02:33:15.341Z,11.04
2022-12-31T02:34:15.337Z,11.07
2022-12-31T02:35:15.339Z,11.07
2022-12-31T02:36:15.289Z,10.99
2022-12-31T02:37:15.315Z,10.92
2022-12-31T02:38:15.300Z,10.81
2022-12-31T02:39:15.273Z,10.72
2022-12-31T02:40:15.267Z,10.61
2022-12-31T02:41:15.262Z,10.56
2022-12-31T02:42:15.211Z,10.44
2022-12-31T02:43:15.229Z,10.41
2022-12-31T02:44:15.181Z,10.37
2022-12-31T02:45:15.241Z,10.35
2022-12-31T02:46:15.202Z,10.34
2022-12-31T02:47:15.183Z,10.30
2022-12-31T02:48:15.133Z,10.23
2022-12-31T02:49:15.189Z,10.20
2022-12-31T02:50:15.112Z,10.17
2022-12-31T02:51:15.092Z,10.15
2022-12-31T02:52:15.131Z,10.13
2022-12-31T02:53:15.067Z,10.13
2022-12-31T02:54:15.114Z,10.15
2022-12-31T02:55:15.040Z,10.23
2022-12-31T02:56:15.063Z,10.23
2022-12-31T02:57:15.025Z,10.25
2022-12-31T02:58:15.011Z,10.33
2022-12-31T02:59:15.003Z,10.34
2022-12-31T03:00:15.012Z,10.41
2022-12-31T03:01:15.045Z,10.51
2022-12-31T03:02:15.133Z,10.63
2022-12-31T03:03:14.936Z,10.74
2022-12-31T03:04:14.927Z,10.79
2022-12-31T03:05:14.935Z,10.84
2022-12-31T03:06:14.899Z,10.86
2022-12-31T03:07:14.925Z,10.87
2022-12-31T03:08:14.876Z,10.92
2022-12-31T03:09:14.875Z,10.90
2022-12-31T03:10:14.856Z,10.89
2022-12-31T03:11:14.840Z,10.87
2022-12-31T03:12:14.844Z,10.79
2022-12-31T03:13:14.804Z,10.63
2022-12-31T03:14:14.803Z,10.49
2022-12-31T03:15:14.857Z,10.40
2022-12-31T03:16:14.802Z,10.37
2022-12-31T03:17:14.749Z,10.33
2022-12-31T03:18:14.743Z,10.33
2022-12-31T03:19:14.718Z,10.30
2022-12-31T03:20:14.858Z,10.30
2022-12-31T03:21:14.696Z,10.31
2022-12-31T03:22:14.683Z,10.28
2022-12-31T03:23:14.671Z,10.30
2022-12-31T03:24:14.691Z,10.31
2022-12-31T03:25:14.644Z,10.37
2022-12-31T03:26:14.646Z,10.40
2022-12-31T03:27:14.611Z,10.37
2022-12-31T03:28:14.616Z,10.33
2022-12-31T03:29:14.623Z,10.31
2022-12-31T03:30:14.603Z,10.26
2022-12-31T03:31:14.602Z,10.23
2022-12-31T03:32:14.580Z,10.23
2022-12-31T03:33:14.543Z,10.20
2022-12-31T03:34:14.531Z,10.17
2022-12-31T03:35:14.531Z,10.17
2022-12-31T03:36:14.556Z,10.23
2022-12-31T03:37:14.489Z,10.33
2022-12-31T03:38:14.504Z,10.37
2022-12-31T03:39:14.459Z,10.41
2022-12-31T03:40:14.466Z,10.41
2022-12-31T03:41:14.432Z,10.40
2022-12-31T03:42:14.442Z,10.38
2022-12-31T03:43:14.405Z,10.34
2022-12-31T03:44:14.452Z,10.28
2022-12-31T03:45:14.397Z,10.19
2022-12-31T03:46:14.459Z,10.15
2022-12-31T03:47:14.357Z,10.04
2022-12-31T03:48:14.374Z,10.01
2022-12-31T03:49:14.334Z,9.97
2022-12-31T03:50:14.326Z,9.99
2022-12-31T03:51:14.314Z,10.02
2022-12-31T03:52:14.299Z,10.07
2022-12-31T03:53:14.303Z,10.16
2022-12-31T03:54:14.269Z,10.30
2022-12-31T03:55:14.269Z,10.31
2022-12-31T03:56:14.241Z,10.33
2022-12-31T03:57:14.211Z,10.28
2022-12-31T03:58:14.212Z,10.26
2022-12-31T03:59:14.189Z,10.23
2022-12-31T04:00:14.205Z,10.17
2022-12-31T04:01:14.284Z,10.12
2022-12-31T04:02:14.326Z,10.02
2022-12-31T04:03:14.203Z,9.95
2022-12-31T04:04:14.157Z,9.89
2022-12-31T04:05:14.103Z,9.97
2022-12-31T04:06:14.163Z,10.01
2022-12-31T04:07:14.096Z,10.07
2022-12-31T04:08:14.081Z,10.07
2022-12-31T04:09:14.079Z,10.07
2022-12-31T04:10:14.054Z,10.05
2022-12-31T04:11:20.505Z,10.02
2022-12-31T04:12:14.036Z,9.97
2022-12-31T04:13:14.028Z,9.91
2022-12-31T04:14:13.995Z,9.82
2022-12-31T04:15:13.981Z,9.77
2022-12-31T04:16:14.012Z,9.73
2022-12-31T04:17:13.938Z,9.68
2022-12-31T04:18:13.942Z,9.65
2022-12-31T04:19:13.924Z,9.62
2022-12-31T04:20:13.986Z,9.61
2022-12-31T04:21:13.898Z,9.59
2022-12-31T04:22:13.897Z,9.56
2022-12-31T04:23:13.869Z,9.56
2022-12-31T04:24:13.892Z,9.55
2022-12-31T04:25:13.836Z,9.54
2022-12-31T04:26:13.836Z,9.55
2022-12-31T04:27:13.808Z,9.55
2022-12-31T04:28:13.863Z,9.58
2022-12-31T04:29:13.818Z,9.59
2022-12-31T04:30:13.957Z,9.65
2022-12-31T04:31:13.805Z,9.74
2022-12-31T04:32:13.763Z,9.79
2022-12-31T04:33:13.763Z,9.82
2022-12-31T04:34:13.756Z,9.91
2022-12-31T04:35:13.712Z,10.01
2022-12-31T04:36:13.698Z,10.22
2022-12-31T04:37:13.682Z,10.34
2022-12-31T04:38:13.676Z,10.42
2022-12-31T04:39:13.680Z,10.42
2022-12-31T04:40:13.653Z,10.42
2022-12-31T04:41:13.623Z,10.41
2022-12-31T04:42:13.665Z,10.42
2022-12-31T04:43:13.632Z,10.51
2022-12-31T04:44:13.601Z,10.49
2022-12-31T04:45:13.573Z,10.46
2022-12-31T04:46:13.607Z,10.35
2022-12-31T04:47:17.407Z,10.28
2022-12-31T04:48:13.563Z,10.20
2022-12-31T04:49:13.514Z,10.10
2022-12-31T04:50:13.522Z,9.99
2022-12-31T04:51:13.528Z,9.92
2022-12-31T04:52:13.507Z,9.86
2022-12-31T04:53:13.479Z,9.86
2022-12-31T04:54:13.469Z,9.91
2022-12-31T04:55:13.462Z,10.13
2022-12-31T04:56:13.451Z,10.28
2022-12-31T04:57:13.448Z,10.42
2022-12-31T04:58:13.409Z,10.59
2022-12-31T04:59:13.386Z,10.68
2022-12-31T05:00:13.424Z,10.75
2022-12-31T05:01:13.516Z,10.82
2022-12-31T05:02:13.627Z,10.92
2022-12-31T05:03:13.500Z,10.99
2022-12-31T05:04:13.333Z,11.04
2022-12-31T05:05:13.304Z,11.08
2022-12-31T05:06:13.300Z,11.10
2022-12-31T05:07:13.308Z,11.10
2022-12-31T05:08:13.348Z,11.10
2022-12-31T05:09:13.260Z,11.12
2022-12-31T05:10:13.247Z,11.10
2022-12-31T05:11:13.258Z,11.05
2022-12-31T05:12:13.261Z,10.99
2022-12-31T05:13:13.219Z,10.90
2022-12-31T05:14:13.206Z,10.82
2022-12-31T05:15:13.205Z,10.76
2022-12-31T05:16:13.219Z,10.68
2022-12-31T05:17:13.163Z,10.61
2022-12-31T05:18:13.263Z,10.57
2022-12-31T05:19:13.148Z,10.56
2022-12-31T05:20:13.187Z,10.56
2022-12-31T05:21:13.090Z,10.56
2022-12-31T05:22:13.112Z,10.54
2022-12-31T05:23:13.052Z,10.51
2022-12-31T05:24:13.096Z,10.48
2022-12-31T05:25:13.049Z,10.40
2022-12-31T05:26:13.033Z,10.31
2022-12-31T05:27:13.036Z,10.26
2022-12-31T05:28:13.009Z,10.20
2022-12-31T05:29:12.985Z,10.16
2022-12-31T05:30:13.030Z,10.10
2022-12-31T05:31:13.016Z,10.02
2022-12-31T05:32:12.956Z,9.97
2022-12-31T05:33:12.959Z,9.91
2022-12-31T05:34:12.924Z,9.84
2022-12-31T05:35:12.903Z,9.99
2022-12-31T05:36:12.935Z,10.12
2022-12-31T05:37:12.898Z,10.20
2022-12-31T05:38:12.877Z,10.28
2022-12-31T05:39:12.929Z,10.28
2022-12-31T05:40:12.860Z,10.35
2022-12-31T05:41:12.827Z,10.44
2022-12-31T05:42:12.823Z,10.51
2022-12-31T05:43:12.837Z,10.60
2022-12-31T05:44:12.787Z,10.68
2022-12-31T05:45:12.764Z,10.72
2022-12-31T05:46:12.790Z,10.74
2022-12-31T05:47:12.748Z,10.74
2022-12-31T05:48:12.777Z,10.74
2022-12-31T05:49:12.732Z,10.76
2022-12-31T05:50:12.724Z,10.79
2022-12-31T05:51:12.699Z,10.84
2022-12-31T05:52:12.714Z,10.92
2022-12-31T05:53:12.671Z,10.97
2022-12-31T05:54:12.666Z,11.05
2022-12-31T05:55:12.670Z,11.07
2022-12-31T05:56:12.657Z,11.02
2022-12-31T05:57:12.627Z,10.96
2022-12-31T05:58:12.626Z,10.89
2022-12-31T05:59:12.603Z,10.79
2022-12-31T06:00:12.601Z,10.75
2022-12-31T06:01:12.580Z,10.75
2022-12-31T06:02:12.716Z,10.79
2022-12-31T06:03:12.689Z,10.87
2022-12-31T06:04:12.530Z,10.86
2022-12-31T06:05:12.528Z,10.86
2022-12-31T06:06:12.497Z,10.76
2022-12-31T06:07:12.478Z,10.61
2022-12-31T06:08:12.500Z,10.51
2022-12-31T06:09:12.472Z,10.35
2022-12-31T06:10:12.451Z,10.23
2022-12-31T06:11:12.425Z,10.12
2022-12-31T06:12:12.419Z,10.01
2022-12-31T06:13:12.427Z,9.95
2022-12-31T06:14:12.432Z,9.94
2022-12-31T06:15:12.371Z,9.91
2022-12-31T06:16:12.425Z,9.80
2022-12-31T06:17:12.351Z,9.73
2022-12-31T06:18:12.365Z,9.66
2022-12-31T06:19:12.314Z,9.55
2022-12-31T06:20:13.248Z,9.46
2022-12-31T06:21:12.298Z,9.41
2022-12-31T06:22:12.311Z,9.43
2022-12-31T06:23:12.258Z,9.51
2022-12-31T06:24:12.278Z,9.64
2022-12-31T06:25:12.241Z,9.73
2022-12-31T06:26:12.261Z,9.76
2022-12-31T06:27:12.211Z,9.77
2022-12-31T06:28:19.685Z,9.79
2022-12-31T06:29:12.195Z,9.80
2022-12-31T06:30:12.178Z,9.76
2022-12-31T06:31:12.380Z,9.73
2022-12-31T06:32:12.160Z,9.73
2022-12-31T06:33:12.137Z,9.64
2022-12-31T06:34:12.125Z,9.54
2022-12-31T06:35:12.096Z,9.47
2022-12-31T06:36:12.133Z,9.44
2022-12-31T06:37:12.071Z,9.41
2022-12-31T06:38:12.077Z,9.36
2022-12-31T06:39:12.074Z,9.32
2022-12-31T06:40:12.045Z,9.28
2022-12-31T06:41:12.059Z,9.22
2022-12-31T06:42:12.048Z,9.19
2022-12-31T06:43:12.180Z,9.14
2022-12-31T06:44:11.989Z,9.10
2022-12-31T06:45:11.992Z,9.04
2022-12-31T06:46:12.021Z,9.03
2022-12-31T06:47:11.973Z,9.00
2022-12-31T06:48:11.970Z,8.99
2022-12-31T06:49:11.942Z,8.97
2022-12-31T06:50:11.906Z,8.95
2022-12-31T06:51:16.740Z,8.94
2022-12-31T06:52:11.921Z,8.91
2022-12-31T06:53:11.867Z,8.89
2022-12-31T06:54:11.875Z,8.84
2022-12-31T06:55:11.837Z,8.82
2022-12-31T06:56:11.825Z,8.78
2022-12-31T06:57:11.832Z,8.73
2022-12-31T06:58:11.827Z,8.69
2022-12-31T06:59:11.794Z,8.69
2022-12-31T07:00:11.766Z,8.67
2022-12-31T07:01:11.792Z,8.67
2022-12-31T07:02:11.806Z,8.67
2022-12-31T07:03:11.818Z,8.66
2022-12-31T07:04:11.768Z,8.66
2022-12-31T07:05:11.704Z,8.67
2022-12-31T07:06:11.711Z,8.64
2022-12-31T07:07:11.678Z,8.66
2022-12-31T07:08:11.665Z,8.63
2022-12-31T07:09:11.656Z,8.63
2022-12-31T07:10:11.654Z,8.63
2022-12-31T07:11:11.669Z,8.63
2022-12-31T07:12:11.630Z,8.63
2022-12-31T07:13:11.623Z,8.63
2022-12-31T07:14:11.580Z,8.63
2022-12-31T07:15:11.579Z,8.61
2022-12-31T07:16:11.712Z,8.60
2022-12-31T07:17:11.544Z,8.49
2022-12-31T07:18:11.548Z,8.33
2022-12-31T07:19:11.530Z,8.24
2022-12-31T07:20:11.488Z,8.23
2022-12-31T07:21:11.487Z,8.24
2022-12-31T07:22:11.502Z,8.23
2022-12-31T07:23:11.468Z,8.20
2022-12-31T07:24:11.486Z,8.20
2022-12-31T07:25:11.463Z,8.19
2022-12-31T07:26:11.416Z,8.16
2022-12-31T07:27:11.405Z,8.16
2022-12-31T07:28:11.407Z,8.18
2022-12-31T07:29:11.427Z,8.19
2022-12-31T07:30:11.399Z,8.26
2022-12-31T07:31:11.413Z,8.28
2022-12-31T07:32:11.325Z,8.33
2022-12-31T07:33:11.340Z,8.37
2022-12-31T07:34:11.331Z,8.44
2022-12-31T07:35:11.323Z,8.42
2022-12-31T07:36:11.292Z,8.41
2022-12-31T07:37:11.272Z,8.44
2022-12-31T07:38:11.248Z,8.42
2022-12-31T07:39:11.345Z,8.44
2022-12-31T07:40:11.233Z,8.42
2022-12-31T07:41:11.233Z,8.44
2022-12-31T07:42:11.200Z,8.45
2022-12-31T07:43:11.197Z,8.48
2022-12-31T07:44:11.202Z,8.51
2022-12-31T07:45:11.168Z,8.53
2022-12-31T07:46:11.187Z,8.56
2022-12-31T07:47:11.133Z,8.58
2022-12-31T07:48:11.117Z,8.60
2022-12-31T07:49:11.120Z,8.61
2022-12-31T07:50:11.094Z,8.67
2022-12-31T07:51:11.117Z,8.88
2022-12-31T07:52:11.055Z,9.08
2022-12-31T07:53:11.088Z,9.25
2022-12-31T07:54:14.266Z,9.36
2022-12-31T07:55:11.029Z,9.48
2022-12-31T07:56:11.002Z,9.68
2022-12-31T07:57:11.038Z,9.84
2022-12-31T07:58:10.973Z,10.01
2022-12-31T07:59:10.985Z,10.25
2022-12-31T08:00:10.990Z,10.46
2022-12-31T08:01:11.019Z,10.57
2022-12-31T08:02:11.046Z,10.64
2022-12-31T08:03:10.930Z,10.69
2022-12-31T08:04:10.936Z,10.75
2022-12-31T08:05:10.902Z,10.84
2022-12-31T08:06:10.909Z,10.86
2022-12-31T08:07:10.868Z,10.93
2022-12-31T08:08:10.876Z,11.02
2022-12-31T08:09:10.858Z,11.11
2022-12-31T08:10:17.334Z,11.18
2022-12-31T08:11:10.839Z,11.33
2022-12-31T08:12:10.801Z,11.43
2022-12-31T08:13:10.778Z,11.48
2022-12-31T08:14:10.765Z,11.51
2022-12-31T08:15:10.787Z,11.55
2022-12-31T08:16:10.812Z,11.62
2022-12-31T08:17:10.746Z,11.66
2022-12-31T08:18:10.712Z,11.69
2022-12-31T08:19:10.719Z,11.69
2022-12-31T08:20:10.725Z,11.70
2022-12-31T08:21:10.721Z,11.70
2022-12-31T08:22:10.673Z,11.69
2022-12-31T08:23:10.692Z,11.66
2022-12-31T08:24:10.655Z,11.66
2022-12-31T08:25:10.629Z,11.66
2022-12-31T08:26:10.600Z,11.69
2022-12-31T08:27:10.634Z,11.75
2022-12-31T08:28:10.603Z,11.80
2022-12-31T08:29:10.569Z,11.81
2022-12-31T08:30:10.544Z,11.83
2022-12-31T08:31:10.631Z,11.84
2022-12-31T08:32:10.558Z,11.83
2022-12-31T08:33:10.525Z,11.81
2022-12-31T08:34:10.496Z,11.83
2022-12-31T08:35:10.499Z,11.80
2022-12-31T08:36:10.510Z,11.83
2022-12-31T08:37:10.468Z,11.86
2022-12-31T08:38:10.449Z,11.87
2022-12-31T08:39:10.436Z,11.88
2022-12-31T08:40:10.425Z,11.90
2022-12-31T08:41:10.483Z,11.91
2022-12-31T08:42:10.386Z,11.95
2022-12-31T08:43:10.403Z,11.99
2022-12-31T08:44:10.397Z,12.02
2022-12-31T08:45:10.367Z,12.03
2022-12-31T08:46:10.359Z,12.03
2022-12-31T08:47:10.338Z,12.06
2022-12-31T08:48:10.332Z,12.07
2022-12-31T08:49:10.309Z,12.03
2022-12-31T08:50:10.311Z,12.03
2022-12-31T08:51:10.308Z,12.03
2022-12-31T08:52:10.267Z,12.04
2022-12-31T08:53:10.287Z,12.03
2022-12-31T08:54:10.243Z,12.02
2022-12-31T08:55:10.232Z,12.06
2022-12-31T08:56:10.200Z,12.07
2022-12-31T08:57:10.215Z,12.09
2022-12-31T08:58:10.203Z,12.12
2022-12-31T08:59:10.173Z,12.12
2022-12-31T09:00:10.152Z,12.09
2022-12-31T09:01:10.226Z,11.95
2022-12-31T09:02:10.304Z,11.72
2022-12-31T09:03:10.147Z,11.62
2022-12-31T09:04:10.182Z,11.66
2022-12-31T09:05:10.096Z,11.66
2022-12-31T09:06:10.077Z,11.63
2022-12-31T09:07:10.064Z,11.55
2022-12-31T09:08:10.071Z,11.57
2022-12-31T09:09:10.065Z,11.66
2022-12-31T09:10:10.016Z,11.59
2022-12-31T09:11:10.079Z,11.47
2022-12-31T09:12:10.004Z,11.45
2022-12-31T09:13:09.994Z,11.52
2022-12-31T09:14:10.003Z,11.52
2022-12-31T09:15:10.010Z,11.50
2022-12-31T09:16:09.976Z,11.45
2022-12-31T09:17:09.934Z,11.41
2022-12-31T09:18:09.953Z,11.44
2022-12-31T09:19:09.919Z,11.70
2022-12-31T09:20:09.880Z,12.02
2022-12-31T09:21:09.877Z,12.21
2022-12-31T09:22:09.864Z,12.24
2022-12-31T09:23:09.877Z,12.15
2022-12-31T09:24:09.868Z,12.00
2022-12-31T09:25:09.828Z,11.83
2022-12-31T09:26:09.825Z,11.90
2022-12-31T09:27:09.826Z,11.95
2022-12-31T09:28:09.782Z,11.84
2022-12-31T09:29:09.782Z,11.69
2022-12-31T09:30:09.753Z,11.57
2022-12-31T09:31:09.740Z,11.45
2022-12-31T09:32:09.770Z,11.37
2022-12-31T09:33:09.743Z,11.32
2022-12-31T09:34:09.722Z,11.26
2022-12-31T09:35:09.695Z,11.23
2022-12-31T09:36:09.676Z,11.18
2022-12-31T09:37:09.700Z,11.19
2022-12-31T09:38:11.895Z,11.22
2022-12-31T09:39:09.655Z,11.29
2022-12-31T09:40:09.618Z,11.41
2022-12-31T09:41:09.606Z,11.55
2022-12-31T09:42:09.593Z,11.70
2022-12-31T09:43:09.602Z,11.94
2022-12-31T09:44:09.571Z,12.09
2022-12-31T09:45:09.552Z,12.24
2022-12-31T09:46:09.629Z,12.36
2022-12-31T09:47:09.535Z,12.47
2022-12-31T09:48:09.541Z,12.62
2022-12-31T09:49:09.536Z,12.73
2022-12-31T09:50:09.492Z,12.76
2022-12-31T09:51:09.492Z,12.79
2022-12-31T09:52:09.488Z,12.79
2022-12-31T09:53:09.480Z,12.80
2022-12-31T09:54:09.505Z,12.94
2022-12-31T09:55:09.451Z,13.12
2022-12-31T09:56:09.412Z,13.33
2022-12-31T09:57:09.402Z,13.46
2022-12-31T09:58:09.389Z,13.53
2022-12-31T09:59:09.377Z,13.56
2022-12-31T10:00:09.354Z,13.57
2022-12-31T10:01:09.499Z,13.59
2022-12-31T10:02:09.507Z,13.56
2022-12-31T10:03:09.404Z,13.54
2022-12-31T10:04:09.319Z,13.53
2022-12-31T10:05:09.313Z,13.50
2022-12-31T10:06:09.268Z,13.44
2022-12-31T10:07:09.291Z,13.37
2022-12-31T10:08:09.249Z,13.27
2022-12-31T10:09:09.265Z,13.22
2022-12-31T10:10:09.217Z,13.19
2022-12-31T10:11:09.222Z,13.18
2022-12-31T10:12:09.181Z,13.19
2022-12-31T10:13:09.229Z,13.20
2022-12-31T10:14:09.227Z,13.20
2022-12-31T10:15:09.157Z,13.23
2022-12-31T10:16:09.157Z,13.22
2022-12-31T10:17:09.299Z,13.22
2022-12-31T10:18:09.102Z,13.20
2022-12-31T10:19:09.098Z,13.18
2022-12-31T10:20:09.085Z,13.15
2022-12-31T10:21:09.098Z,13.11
2022-12-31T10:22:09.047Z,13.08
2022-12-31T10:23:09.049Z,13.05
2022-12-31T10:24:09.026Z,13.00
2022-12-31T10:25:09.047Z,12.95
2022-12-31T10:26:09.002Z,12.91
2022-12-31T10:27:09.029Z,12.91
2022-12-31T10:28:08.985Z,12.86
2022-12-31T10:29:09.022Z,12.83
2022-12-31T10:30:08.949Z,12.83
2022-12-31T10:31:09.031Z,12.80
2022-12-31T10:32:08.920Z,12.80
2022-12-31T10:33:08.947Z,12.82
2022-12-31T10:34:08.892Z,12.85
2022-12-31T10:35:08.883Z,12.87
2022-12-31T10:36:08.897Z,12.87
2022-12-31T10:37:08.862Z,12.90
2022-12-31T10:38:08.871Z,12.80
2022-12-31T10:39:13.480Z,12.70
2022-12-31T10:40:08.811Z,12.78
2022-12-31T10:41:08.833Z,13.00
2022-12-31T10:42:08.777Z,13.22
2022-12-31T10:43:08.812Z,13.44
2022-12-31T10:44:08.761Z,13.56
2022-12-31T10:45:08.773Z,13.63
2022-12-31T10:46:08.759Z,13.68
2022-12-31T10:47:08.748Z,13.71
2022-12-31T10:48:08.696Z,13.78
2022-12-31T10:49:08.702Z,13.81
2022-12-31T10:50:08.674Z,13.85
2022-12-31T10:51:08.689Z,13.95
2022-12-31T10:52:08.670Z,14.14
2022-12-31T10:53:08.663Z,14.37
2022-12-31T10:54:08.623Z,14.58
2022-12-31T10:55:08.656Z,14.60
2022-12-31T10:56:08.622Z,14.59
2022-12-31T10:57:08.620Z,14.51
2022-12-31T10:58:08.572Z,14.41
2022-12-31T10:59:08.567Z,14.22
2022-12-31T11:00:08.537Z,14.15
2022-12-31T11:01:08.643Z,14.20
2022-12-31T11:02:08.761Z,14.28
2022-12-31T11:03:08.575Z,14.32
2022-12-31T11:04:08.492Z,14.44
2022-12-31T11:05:08.534Z,14.44
2022-12-31T11:06:08.502Z,14.51
2022-12-31T11:07:08.458Z,14.63
2022-12-31T11:08:08.507Z,14.63
2022-12-31T11:09:08.414Z,14.77
2022-12-31T11:10:08.423Z,14.82
2022-12-31T11:11:08.429Z,14.84
2022-12-31T11:12:08.408Z,14.96
2022-12-31T11:13:08.369Z,15.17
2022-12-31T11:14:08.376Z,15.35
2022-12-31T11:15:08.363Z,15.49
2022-12-31T11:16:08.410Z,15.55
2022-12-31T11:17:08.341Z,15.44
2022-12-31T11:18:08.308Z,15.36
2022-12-31T11:19:08.288Z,15.35
2022-12-31T11:20:08.285Z,15.31
2022-12-31T11:21:08.291Z,15.27
2022-12-31T11:22:08.279Z,15.21
2022-12-31T11:23:08.245Z,15.09
2022-12-31T11:24:08.246Z,14.97
2022-12-31T11:25:08.203Z,14.81
2022-12-31T11:26:08.225Z,14.65
2022-12-31T11:27:08.183Z,14.54
2022-12-31T11:28:08.171Z,14.53
2022-12-31T11:29:08.179Z,14.50
2022-12-31T11:30:08.187Z,14.51
2022-12-31T11:31:08.181Z,14.51
2022-12-31T11:32:08.150Z,14.48
2022-12-31T11:33:08.130Z,14.35
2022-12-31T11:34:08.095Z,14.32
2022-12-31T11:35:08.084Z,14.36
2022-12-31T11:36:08.074Z,14.44
2022-12-31T11:37:08.099Z,14.48
2022-12-31T11:38:08.036Z,14.51
2022-12-31T11:39:08.004Z,14.47
2022-12-31T11:40:08.146Z,14.47
2022-12-31T11:41:08.021Z,14.48
2022-12-31T11:42:07.997Z,14.53
2022-12-31T11:43:07.993Z,14.54
2022-12-31T11:44:07.997Z,14.54
2022-12-31T11:45:07.936Z,14.50
2022-12-31T11:46:08.024Z,14.40
2022-12-31T11:47:07.917Z,14.37
2022-12-31T11:49:07.925Z,14.41
2022-12-31T11:50:07.905Z,14.37
2022-12-31T11:51:07.859Z,14.43
2022-12-31T11:52:07.915Z,14.53
2022-12-31T11:53:07.879Z,14.63
2022-12-31T11:54:07.823Z,14.78
2022-12-31T11:55:07.832Z,14.85
2022-12-31T11:56:07.835Z,14.92
2022-12-31T11:57:07.817Z,14.96
2022-12-31T11:58:07.773Z,14.99
2022-12-31T11:59:11.053Z,14.99
2022-12-31T12:00:07.781Z,14.96
2022-12-31T12:01:07.768Z,14.97
2022-12-31T12:02:07.744Z,15.02
2022-12-31T12:03:07.780Z,15.06
2022-12-31T12:04:07.723Z,15.27
2022-12-31T12:05:11.038Z,15.47
2022-12-31T12:06:07.689Z,15.46
2022-12-31T12:07:07.667Z,15.47
2022-12-31T12:08:07.641Z,15.54
2022-12-31T12:09:07.631Z,15.61
2022-12-31T12:10:07.635Z,15.72
2022-12-31T12:11:07.592Z,15.90
2022-12-31T12:12:07.588Z,15.98
2022-12-31T12:13:07.589Z,16.08
2022-12-31T12:14:07.565Z,16.08
2022-12-31T12:15:07.540Z,16.01
2022-12-31T12:16:07.579Z,15.98
2022-12-31T12:17:07.516Z,16.01
2022-12-31T12:18:07.535Z,16.00
2022-12-31T12:19:07.485Z,15.88
2022-12-31T12:20:07.491Z,15.80
2022-12-31T12:21:07.485Z,15.75
2022-12-31T12:22:07.447Z,15.75
2022-12-31T12:23:07.430Z,15.73
2022-12-31T12:24:07.423Z,15.73
2022-12-31T12:25:07.433Z,15.72
2022-12-31T12:26:07.424Z,15.67
2022-12-31T12:27:07.394Z,15.70
2022-12-31T12:28:07.397Z,15.75
2022-12-31T12:29:07.372Z,15.77
2022-12-31T12:30:07.346Z,15.80
2022-12-31T12:31:07.451Z,15.80
2022-12-31T12:32:07.326Z,15.84
2022-12-31T12:33:07.290Z,15.90
2022-12-31T12:34:07.329Z,15.94
2022-12-31T12:35:07.265Z,15.97
2022-12-31T12:36:07.287Z,15.98
2022-12-31T12:37:07.240Z,16.01
2022-12-31T12:38:07.274Z,15.97
2022-12-31T12:39:07.210Z,15.97
2022-12-31T12:40:07.232Z,15.98
2022-12-31T12:41:07.183Z,16.00
2022-12-31T12:42:07.180Z,16.01
2022-12-31T12:43:07.188Z,16.05
2022-12-31T12:44:07.224Z,16.09
2022-12-31T12:45:07.171Z,16.10
2022-12-31T12:46:07.130Z,16.10
2022-12-31T12:47:07.174Z,16.10
2022-12-31T12:48:07.126Z,16.13
2022-12-31T12:49:07.076Z,16.08
2022-12-31T12:50:07.067Z,16.02
2022-12-31T12:51:07.041Z,15.94
2022-12-31T12:52:07.043Z,15.82
2022-12-31T12:53:07.046Z,15.72
2022-12-31T12:54:07.014Z,15.61
2022-12-31T12:55:06.997Z,15.55
2022-12-31T12:56:07.003Z,15.51
2022-12-31T12:57:06.963Z,15.49
2022-12-31T12:58:06.986Z,15.52